createdAt,value
2016-08-27T00:00:06.736Z,20.9
2016-08-27T00:00:30.873Z,20.8
2016-08-27T00:00:55.006Z,20.9
2016-08-27T00:01:19.136Z,20.8
2016-08-27T00:01:43.244Z,20.9
2016-08-27T00:02:07.378Z,20.8
2016-08-27T00:02:31.512Z,20.8
2016-08-27T00:02:55.636Z,20.8
2016-08-27T00:03:19.751Z,20.7
2016-08-27T00:03:43.881Z,20.7
2016-08-27T00:04:07.990Z,20.8
2016-08-27T00:04:32.113Z,20.8
2016-08-27T00:04:56.208Z,20.8
2016-08-27T00:05:20.369Z,20.8
2016-08-27T00:05:44.484Z,20.8
2016-08-27T00:06:08.586Z,20.8
2016-08-27T00:06:32.700Z,20.7
2016-08-27T00:06:56.812Z,20.8
2016-08-27T00:07:20.940Z,20.8
2016-08-27T00:07:45.042Z,20.8
2016-08-27T00:08:09.158Z,20.8
2016-08-27T00:08:33.298Z,20.8
2016-08-27T00:08:57.432Z,20.8
2016-08-27T00:09:21.534Z,20.7
2016-08-27T00:09:45.647Z,20.7
2016-08-27T00:10:09.787Z,20.8
2016-08-27T00:10:33.929Z,20.7
2016-08-27T00:10:58.039Z,20.8
2016-08-27T00:11:22.173Z,20.8
2016-08-27T00:11:53.203Z,20.8
2016-08-27T00:12:17.326Z,20.8
2016-08-27T00:12:41.427Z,20.8
2016-08-27T00:13:05.556Z,20.8
2016-08-27T00:13:29.680Z,20.7
2016-08-27T00:13:53.819Z,20.7
2016-08-27T00:14:17.953Z,20.8
2016-08-27T00:14:42.069Z,20.7
2016-08-27T00:15:06.174Z,20.7
2016-08-27T00:15:30.289Z,20.7
2016-08-27T00:15:54.424Z,20.7
2016-08-27T00:16:18.533Z,20.8
2016-08-27T00:16:42.673Z,20.7
2016-08-27T00:17:06.842Z,20.8
2016-08-27T00:17:30.972Z,20.7
2016-08-27T00:17:55.095Z,20.7
2016-08-27T00:18:19.220Z,20.7
2016-08-27T00:18:43.355Z,20.7
2016-08-27T00:19:07.471Z,20.7
2016-08-27T00:19:31.606Z,20.7
2016-08-27T00:19:55.719Z,20.7
2016-08-27T00:20:19.822Z,20.7
2016-08-27T00:20:43.930Z,20.7
2016-08-27T00:21:08.034Z,20.7
2016-08-27T00:21:32.142Z,20.7
2016-08-27T00:21:56.301Z,20.7
2016-08-27T00:22:20.422Z,20.7
2016-08-27T00:22:44.538Z,20.8
2016-08-27T00:23:08.654Z,20.7
2016-08-27T00:23:32.798Z,20.7
2016-08-27T00:23:56.921Z,20.7
2016-08-27T00:24:21.055Z,20.7
2016-08-27T00:24:45.220Z,20.7
2016-08-27T00:25:09.346Z,20.7
2016-08-27T00:25:33.459Z,20.6
2016-08-27T00:25:57.578Z,20.7
2016-08-27T00:26:21.714Z,20.7
2016-08-27T00:26:45.879Z,20.6
2016-08-27T00:27:09.996Z,20.7
2016-08-27T00:27:34.103Z,20.7
2016-08-27T00:27:58.260Z,20.6
2016-08-27T00:28:22.383Z,20.7
2016-08-27T00:28:46.486Z,20.7
2016-08-27T00:29:10.616Z,20.7
2016-08-27T00:29:34.731Z,20.6
2016-08-27T00:29:58.873Z,20.7
2016-08-27T00:30:22.996Z,20.6
2016-08-27T00:30:47.131Z,20.5
2016-08-27T00:31:11.269Z,20.7
2016-08-27T00:31:35.419Z,20.6
2016-08-27T00:32:18.704Z,20.6
2016-08-27T00:32:42.821Z,20.6
2016-08-27T00:33:06.942Z,20.6
2016-08-27T00:33:31.057Z,20.6
2016-08-27T00:33:55.176Z,20.6
2016-08-27T00:34:19.308Z,20.5
2016-08-27T00:34:43.416Z,20.6
2016-08-27T00:35:07.534Z,20.5
2016-08-27T00:35:31.674Z,20.5
2016-08-27T00:35:55.777Z,20.5
2016-08-27T00:36:19.882Z,20.5
2016-08-27T00:36:43.998Z,20.6
2016-08-27T00:37:08.123Z,20.5
2016-08-27T00:37:32.249Z,20.5
2016-08-27T00:37:56.402Z,20.5
2016-08-27T00:38:20.505Z,20.6
2016-08-27T00:38:44.615Z,20.6
2016-08-27T00:39:08.741Z,20.6
2016-08-27T00:39:32.875Z,20.5
2016-08-27T00:39:56.994Z,20.6
2016-08-27T00:40:21.104Z,20.5
2016-08-27T00:40:45.221Z,20.5
2016-08-27T00:41:09.340Z,20.6
2016-08-27T00:41:33.464Z,20.5
2016-08-27T00:41:57.602Z,20.5
2016-08-27T00:42:21.741Z,20.5
2016-08-27T00:42:45.858Z,20.5
2016-08-27T00:43:09.982Z,20.5
2016-08-27T00:43:34.105Z,20.6
2016-08-27T00:43:58.223Z,20.5
2016-08-27T00:44:22.347Z,20.5
2016-08-27T00:44:46.446Z,20.6
2016-08-27T00:45:10.571Z,20.5
2016-08-27T00:45:34.699Z,20.5
2016-08-27T00:45:58.832Z,20.5
2016-08-27T00:46:22.947Z,20.5
2016-08-27T00:46:47.075Z,20.5
2016-08-27T00:47:11.216Z,20.5
2016-08-27T00:47:35.326Z,20.5
2016-08-27T00:47:59.441Z,20.5
2016-08-27T00:48:23.562Z,20.5
2016-08-27T00:48:47.690Z,20.4
2016-08-27T00:49:11.825Z,20.4
2016-08-27T00:49:35.931Z,20.5
2016-08-27T00:50:00.044Z,20.5
2016-08-27T00:50:24.145Z,20.4
2016-08-27T00:50:48.262Z,20.5
2016-08-27T00:51:12.371Z,20.4
2016-08-27T00:51:36.499Z,20.4
2016-08-27T00:52:00.597Z,20.4
2016-08-27T00:52:24.709Z,20.4
2016-08-27T00:52:48.811Z,20.4
2016-08-27T00:53:12.937Z,20.5
2016-08-27T00:53:37.056Z,20.4
2016-08-27T00:54:01.182Z,20.4
2016-08-27T00:54:25.304Z,20.4
2016-08-27T00:54:49.413Z,20.4
2016-08-27T00:55:13.549Z,20.5
2016-08-27T00:55:37.692Z,20.5
2016-08-27T00:56:01.802Z,20.5
2016-08-27T00:56:25.920Z,20.4
2016-08-27T00:56:50.058Z,20.5
2016-08-27T00:57:14.162Z,20.4
2016-08-27T00:57:38.269Z,20.4
2016-08-27T00:58:02.363Z,20.5
2016-08-27T00:58:26.482Z,20.5
2016-08-27T00:58:50.592Z,20.3
2016-08-27T00:59:14.704Z,20.4
2016-08-27T00:59:38.809Z,20.4
2016-08-27T01:00:02.917Z,20.4
2016-08-27T01:00:27.045Z,20.3
2016-08-27T01:00:51.148Z,20.4
2016-08-27T01:01:15.288Z,20.3
2016-08-27T01:01:39.416Z,20.4
2016-08-27T01:02:03.569Z,20.4
2016-08-27T01:02:27.672Z,20.4
2016-08-27T01:02:51.810Z,20.3
2016-08-27T01:03:15.942Z,20.4
2016-08-27T01:03:40.060Z,20.4
2016-08-27T01:04:04.159Z,20.4
2016-08-27T01:04:28.272Z,20.4
2016-08-27T01:04:52.390Z,20.4
2016-08-27T01:05:16.523Z,20.4
2016-08-27T01:05:40.635Z,20.4
2016-08-27T01:06:04.751Z,20.4
2016-08-27T01:06:28.884Z,20.4
2016-08-27T01:06:53.030Z,20.4
2016-08-27T01:07:17.167Z,20.4
2016-08-27T01:07:41.293Z,20.3
2016-08-27T01:08:05.434Z,20.4
2016-08-27T01:08:29.547Z,20.4
2016-08-27T01:08:53.666Z,20.4
2016-08-27T01:09:17.782Z,20.4
2016-08-27T01:09:41.942Z,20.4
2016-08-27T01:10:06.096Z,20.4
2016-08-27T01:10:30.219Z,20.4
2016-08-27T01:10:54.364Z,20.4
2016-08-27T01:11:18.501Z,20.4
2016-08-27T01:11:42.611Z,20.4
2016-08-27T01:12:06.710Z,20.4
2016-08-27T01:12:30.857Z,20.4
2016-08-27T01:12:54.975Z,20.4
2016-08-27T01:13:19.089Z,20.3
2016-08-27T01:13:43.194Z,20.4
2016-08-27T01:14:07.341Z,20.4
2016-08-27T01:14:31.492Z,20.4
2016-08-27T01:14:55.620Z,20.3
2016-08-27T01:15:19.745Z,20.3
2016-08-27T01:15:43.890Z,20.3
2016-08-27T01:16:08.044Z,20.4
2016-08-27T01:16:32.182Z,20.3
2016-08-27T01:16:56.272Z,20.3
2016-08-27T01:17:20.382Z,20.3
2016-08-27T01:17:44.509Z,20.2
2016-08-27T01:18:08.628Z,20.4
2016-08-27T01:18:32.717Z,20.3
2016-08-27T01:18:56.841Z,20.3
2016-08-27T01:19:20.976Z,20.2
2016-08-27T01:19:45.102Z,20.3
2016-08-27T01:20:09.206Z,20.3
2016-08-27T01:20:33.330Z,20.3
2016-08-27T01:20:57.469Z,20.4
2016-08-27T01:21:21.586Z,20.4
2016-08-27T01:21:45.690Z,20.4
2016-08-27T01:22:09.792Z,20.3
2016-08-27T01:22:33.896Z,20.3
2016-08-27T01:22:58.003Z,20.2
2016-08-27T01:23:22.145Z,20.2
2016-08-27T01:23:46.280Z,20.3
2016-08-27T01:24:10.408Z,20.2
2016-08-27T01:24:34.536Z,20.3
2016-08-27T01:24:58.650Z,20.4
2016-08-27T01:25:22.768Z,20.3
2016-08-27T01:25:46.909Z,20.3
2016-08-27T01:26:11.033Z,20.3
2016-08-27T01:26:35.149Z,20.3
2016-08-27T01:26:59.268Z,20.3
2016-08-27T01:27:23.433Z,20.3
2016-08-27T01:27:47.547Z,20.2
2016-08-27T01:28:11.675Z,20.3
2016-08-27T01:28:35.818Z,20.3
2016-08-27T01:28:59.963Z,20.3
2016-08-27T01:29:24.082Z,20.3
2016-08-27T01:29:48.197Z,20.3
2016-08-27T01:30:12.331Z,20.3
2016-08-27T01:30:36.477Z,20.2
2016-08-27T01:31:00.606Z,20.3
2016-08-27T01:31:24.716Z,20.3
2016-08-27T01:31:48.816Z,20.3
2016-08-27T01:32:12.950Z,20.2
2016-08-27T01:32:37.065Z,20.3
2016-08-27T01:33:01.175Z,20.3
2016-08-27T01:33:25.302Z,20.3
2016-08-27T01:33:49.419Z,20.3
2016-08-27T01:34:13.530Z,20.3
2016-08-27T01:34:37.632Z,20.2
2016-08-27T01:35:01.748Z,20.3
2016-08-27T01:35:25.874Z,20.3
2016-08-27T01:35:50.009Z,20.3
2016-08-27T01:36:14.101Z,20.3
2016-08-27T01:36:38.223Z,20.2
2016-08-27T01:37:02.344Z,20.3
2016-08-27T01:37:26.468Z,20.2
2016-08-27T01:37:50.564Z,20.2
2016-08-27T01:38:14.696Z,20.3
2016-08-27T01:38:38.832Z,20.3
2016-08-27T01:39:02.930Z,20.3
2016-08-27T01:39:27.037Z,20.3
2016-08-27T01:39:51.137Z,20.3
2016-08-27T01:40:15.248Z,20.3
2016-08-27T01:40:39.351Z,20.2
2016-08-27T01:41:03.454Z,20.3
2016-08-27T01:41:27.587Z,20.3
2016-08-27T01:42:15.727Z,20.2
2016-08-27T01:42:39.828Z,20.3
2016-08-27T01:43:03.943Z,20.2
2016-08-27T01:43:28.057Z,20.3
2016-08-27T01:43:52.188Z,20.2
2016-08-27T01:44:16.296Z,20.2
2016-08-27T01:44:40.419Z,20.3
2016-08-27T01:45:04.540Z,20.2
2016-08-27T01:45:28.654Z,20.2
2016-08-27T01:45:52.769Z,20.1
2016-08-27T01:46:16.872Z,20.2
2016-08-27T01:46:41.004Z,20.3
2016-08-27T01:47:05.118Z,20.2
2016-08-27T01:47:29.227Z,20.2
2016-08-27T01:47:53.342Z,20.3
2016-08-27T01:48:17.452Z,20.2
2016-08-27T01:48:41.578Z,20.2
2016-08-27T01:49:05.693Z,20.2
2016-08-27T01:49:29.811Z,20.2
2016-08-27T01:49:53.935Z,20.2
2016-08-27T01:50:18.048Z,20.2
2016-08-27T01:50:42.147Z,20.2
2016-08-27T01:51:06.276Z,20.1
2016-08-27T01:51:30.422Z,20.1
2016-08-27T01:51:54.546Z,20.2
2016-08-27T01:52:18.643Z,20.2
2016-08-27T01:52:42.787Z,20.2
2016-08-27T01:53:06.938Z,20.1
2016-08-27T01:53:31.051Z,20.2
2016-08-27T01:53:55.171Z,20.1
2016-08-27T01:54:19.291Z,20.1
2016-08-27T01:54:43.427Z,20.1
2016-08-27T01:55:07.567Z,20.1
2016-08-27T01:55:31.683Z,20.1
2016-08-27T01:55:55.812Z,20.2
2016-08-27T01:56:19.965Z,20.1
2016-08-27T01:56:44.110Z,20.1
2016-08-27T01:57:08.216Z,20.1
2016-08-27T01:57:32.333Z,20
2016-08-27T01:57:56.452Z,20.1
2016-08-27T01:58:20.565Z,20.1
2016-08-27T01:58:44.663Z,20.1
2016-08-27T01:59:08.783Z,20.2
2016-08-27T01:59:32.898Z,20
2016-08-27T01:59:57.026Z,20
2016-08-27T02:00:21.234Z,20
2016-08-27T02:00:45.382Z,20
2016-08-27T02:01:09.498Z,20.1
2016-08-27T02:01:33.653Z,20.1
2016-08-27T02:01:57.765Z,20
2016-08-27T02:02:21.920Z,20
2016-08-27T02:02:46.048Z,20
2016-08-27T02:03:10.173Z,20.1
2016-08-27T02:03:34.283Z,20
2016-08-27T02:03:58.406Z,20.1
2016-08-27T02:04:22.545Z,20
2016-08-27T02:04:46.687Z,20
2016-08-27T02:05:10.802Z,19.9
2016-08-27T02:05:34.922Z,19.9
2016-08-27T02:05:59.033Z,20
2016-08-27T02:06:23.141Z,19.9
2016-08-27T02:06:47.240Z,20
2016-08-27T02:07:11.391Z,20
2016-08-27T02:07:35.511Z,20.1
2016-08-27T02:07:59.633Z,20
2016-08-27T02:08:23.735Z,20
2016-08-27T02:08:47.856Z,20
2016-08-27T02:09:11.982Z,20
2016-08-27T02:09:36.113Z,20
2016-08-27T02:10:00.236Z,19.9
2016-08-27T02:10:24.369Z,19.9
2016-08-27T02:10:48.469Z,19.9
2016-08-27T02:11:12.598Z,19.8
2016-08-27T02:11:36.702Z,19.9
2016-08-27T02:12:00.812Z,19.8
2016-08-27T02:12:24.934Z,19.9
2016-08-27T02:12:49.059Z,19.8
2016-08-27T02:13:13.144Z,19.9
2016-08-27T02:13:37.273Z,19.9
2016-08-27T02:14:01.401Z,19.9
2016-08-27T02:14:25.519Z,19.9
2016-08-27T02:14:49.643Z,19.9
2016-08-27T02:15:13.789Z,19.9
2016-08-27T02:15:37.917Z,19.9
2016-08-27T02:16:02.022Z,19.9
2016-08-27T02:16:26.395Z,19.8
2016-08-27T02:16:50.512Z,19.9
2016-08-27T02:17:14.648Z,19.8
2016-08-27T02:17:38.760Z,19.8
2016-08-27T02:18:02.857Z,19.8
2016-08-27T02:18:26.973Z,19.8
2016-08-27T02:18:51.087Z,19.8
2016-08-27T02:19:15.208Z,19.8
2016-08-27T02:19:39.323Z,19.9
2016-08-27T02:20:03.448Z,19.9
2016-08-27T02:20:27.558Z,19.8
2016-08-27T02:20:51.681Z,19.9
2016-08-27T02:21:15.781Z,19.9
2016-08-27T02:21:39.895Z,19.9
2016-08-27T02:22:04.012Z,19.8
2016-08-27T02:23:11.571Z,19.8
2016-08-27T02:23:35.681Z,19.8
2016-08-27T02:23:59.792Z,19.8
2016-08-27T02:24:23.915Z,19.8
2016-08-27T02:24:48.017Z,19.8
2016-08-27T02:25:12.144Z,19.8
2016-08-27T02:25:36.249Z,19.8
2016-08-27T02:26:00.357Z,19.8
2016-08-27T02:26:24.454Z,19.7
2016-08-27T02:26:48.584Z,19.8
2016-08-27T02:27:12.713Z,19.8
2016-08-27T02:27:36.849Z,19.7
2016-08-27T02:28:00.945Z,19.7
2016-08-27T02:28:25.103Z,19.7
2016-08-27T02:28:49.221Z,19.7
2016-08-27T02:29:13.379Z,19.7
2016-08-27T02:29:37.490Z,19.8
2016-08-27T02:30:01.617Z,19.7
2016-08-27T02:30:25.765Z,19.6
2016-08-27T02:30:49.910Z,19.7
2016-08-27T02:31:14.004Z,19.6
2016-08-27T02:31:38.135Z,19.7
2016-08-27T02:32:02.245Z,19.8
2016-08-27T02:32:26.370Z,19.8
2016-08-27T02:32:50.473Z,19.7
2016-08-27T02:33:14.581Z,19.7
2016-08-27T02:33:38.689Z,19.7
2016-08-27T02:34:02.788Z,19.6
2016-08-27T02:34:26.898Z,19.8
2016-08-27T02:34:51.015Z,19.8
2016-08-27T02:35:15.137Z,19.7
2016-08-27T02:35:39.247Z,19.7
2016-08-27T02:36:03.398Z,19.7
2016-08-27T02:36:27.531Z,19.6
2016-08-27T02:36:51.641Z,19.6
2016-08-27T02:37:15.770Z,19.6
2016-08-27T02:37:39.906Z,19.7
2016-08-27T02:38:03.996Z,19.7
2016-08-27T02:38:28.137Z,19.6
2016-08-27T02:38:52.258Z,19.6
2016-08-27T02:39:16.342Z,19.7
2016-08-27T02:39:40.469Z,19.7
2016-08-27T02:40:04.595Z,19.6
2016-08-27T02:40:28.749Z,19.6
2016-08-27T02:40:52.848Z,19.6
2016-08-27T02:41:16.981Z,19.6
2016-08-27T02:41:41.105Z,19.7
2016-08-27T02:42:05.233Z,19.6
2016-08-27T02:42:29.328Z,19.6
2016-08-27T02:42:53.460Z,19.6
2016-08-27T02:43:17.603Z,19.6
2016-08-27T02:43:41.718Z,19.6
2016-08-27T02:44:05.815Z,19.7
2016-08-27T02:44:29.922Z,19.7
2016-08-27T02:44:54.038Z,19.7
2016-08-27T02:45:18.167Z,19.7
2016-08-27T02:45:42.275Z,19.6
2016-08-27T02:46:06.397Z,19.6
2016-08-27T02:46:30.509Z,19.6
2016-08-27T02:46:54.762Z,19.6
2016-08-27T02:47:18.850Z,19.7
2016-08-27T02:47:42.947Z,19.7
2016-08-27T02:48:07.058Z,19.6
2016-08-27T02:48:31.182Z,19.7
2016-08-27T02:48:55.284Z,19.7
2016-08-27T02:49:19.432Z,19.6
2016-08-27T02:49:43.553Z,19.7
2016-08-27T02:50:07.672Z,19.6
2016-08-27T02:50:31.768Z,19.7
2016-08-27T02:50:55.913Z,19.6
2016-08-27T02:51:20.021Z,19.6
2016-08-27T02:51:44.153Z,19.6
2016-08-27T02:52:08.260Z,19.6
2016-08-27T02:52:32.388Z,19.6
2016-08-27T02:52:56.498Z,19.6
2016-08-27T02:53:20.627Z,19.6
2016-08-27T02:53:44.735Z,19.6
2016-08-27T02:54:08.844Z,19.5
2016-08-27T02:54:32.978Z,19.5
2016-08-27T02:54:57.090Z,19.6
2016-08-27T02:55:21.191Z,19.6
2016-08-27T02:55:45.317Z,19.6
2016-08-27T02:56:09.466Z,19.6
2016-08-27T02:56:33.585Z,19.6
2016-08-27T02:56:57.693Z,19.5
2016-08-27T02:57:21.820Z,19.6
2016-08-27T02:57:45.944Z,19.6
2016-08-27T02:58:10.075Z,19.5
2016-08-27T02:58:34.165Z,19.6
2016-08-27T02:58:58.299Z,19.5
2016-08-27T02:59:22.431Z,19.6
2016-08-27T02:59:46.566Z,19.5
2016-08-27T03:00:10.657Z,19.5
2016-08-27T03:00:34.768Z,19.5
2016-08-27T03:00:58.898Z,19.5
2016-08-27T03:01:43.192Z,19.6
2016-08-27T03:02:07.326Z,19.6
2016-08-27T03:02:31.445Z,19.6
2016-08-27T03:02:55.551Z,19.6
2016-08-27T03:03:19.701Z,19.6
2016-08-27T03:03:43.797Z,19.6
2016-08-27T03:04:07.895Z,19.5
2016-08-27T03:04:32.033Z,19.5
2016-08-27T03:04:56.145Z,19.5
2016-08-27T03:05:20.240Z,19.5
2016-08-27T03:05:44.347Z,19.6
2016-08-27T03:06:08.463Z,19.5
2016-08-27T03:06:32.579Z,19.5
2016-08-27T03:06:56.686Z,19.5
2016-08-27T03:07:20.805Z,19.6
2016-08-27T03:07:44.928Z,19.5
2016-08-27T03:08:09.041Z,19.5
2016-08-27T03:08:33.143Z,19.4
2016-08-27T03:08:57.263Z,19.5
2016-08-27T03:09:21.392Z,19.4
2016-08-27T03:09:45.538Z,19.5
2016-08-27T03:10:09.645Z,19.5
2016-08-27T03:10:33.746Z,19.5
2016-08-27T03:10:57.872Z,19.5
2016-08-27T03:11:22.026Z,19.4
2016-08-27T03:11:46.132Z,19.4
2016-08-27T03:12:10.241Z,19.5
2016-08-27T03:12:34.373Z,19.5
2016-08-27T03:12:58.490Z,19.5
2016-08-27T03:13:22.574Z,19.4
2016-08-27T03:13:46.663Z,19.5
2016-08-27T03:14:10.787Z,19.4
2016-08-27T03:14:34.895Z,19.4
2016-08-27T03:14:58.985Z,19.4
2016-08-27T03:15:23.113Z,19.4
2016-08-27T03:15:47.230Z,19.4
2016-08-27T03:16:11.359Z,19.4
2016-08-27T03:16:35.475Z,19.4
2016-08-27T03:16:59.589Z,19.4
2016-08-27T03:17:23.712Z,19.4
2016-08-27T03:17:47.838Z,19.4
2016-08-27T03:18:11.934Z,19.4
2016-08-27T03:18:36.049Z,19.4
2016-08-27T03:19:00.168Z,19.4
2016-08-27T03:19:24.300Z,19.3
2016-08-27T03:19:48.415Z,19.4
2016-08-27T03:20:12.533Z,19.4
2016-08-27T03:20:36.657Z,19.5
2016-08-27T03:21:00.777Z,19.3
2016-08-27T03:21:24.912Z,19.4
2016-08-27T03:21:49.012Z,19.4
2016-08-27T03:22:13.147Z,19.4
2016-08-27T03:22:37.276Z,19.3
2016-08-27T03:23:01.397Z,19.3
2016-08-27T03:23:25.492Z,19.4
2016-08-27T03:23:49.607Z,19.4
2016-08-27T03:24:13.739Z,19.4
2016-08-27T03:24:37.882Z,19.3
2016-08-27T03:25:02.001Z,19.4
2016-08-27T03:25:26.106Z,19.3
2016-08-27T03:25:50.264Z,19.3
2016-08-27T03:26:14.431Z,19.3
2016-08-27T03:26:38.551Z,19.3
2016-08-27T03:27:02.658Z,19.2
2016-08-27T03:27:26.772Z,19.3
2016-08-27T03:27:50.903Z,19.4
2016-08-27T03:28:15.010Z,19.2
2016-08-27T03:28:39.112Z,19.3
2016-08-27T03:29:03.225Z,19.2
2016-08-27T03:29:27.347Z,19.2
2016-08-27T03:29:51.482Z,19.4
2016-08-27T03:30:15.611Z,19.3
2016-08-27T03:30:39.735Z,19.3
2016-08-27T03:31:03.888Z,19.3
2016-08-27T03:31:28.012Z,19.3
2016-08-27T03:31:52.104Z,19.2
2016-08-27T03:32:16.230Z,19.3
2016-08-27T03:32:40.340Z,19.3
2016-08-27T03:33:04.510Z,19.3
2016-08-27T03:33:28.634Z,19.3
2016-08-27T03:33:52.782Z,19.2
2016-08-27T03:34:16.898Z,19.3
2016-08-27T03:34:40.993Z,19.2
2016-08-27T03:35:05.109Z,19.2
2016-08-27T03:35:29.220Z,19.2
2016-08-27T03:35:53.372Z,19.2
2016-08-27T03:36:17.500Z,19.2
2016-08-27T03:36:41.609Z,19.1
2016-08-27T03:37:05.733Z,19.2
2016-08-27T03:37:29.866Z,19.1
2016-08-27T03:37:53.961Z,19.1
2016-08-27T03:38:18.077Z,19.2
2016-08-27T03:38:42.179Z,19.2
2016-08-27T03:39:06.290Z,19.1
2016-08-27T03:39:30.397Z,19.1
2016-08-27T03:39:54.513Z,19.2
2016-08-27T03:40:18.645Z,19.1
2016-08-27T03:40:42.770Z,19.1
2016-08-27T03:41:06.880Z,19.1
2016-08-27T03:41:30.990Z,19
2016-08-27T03:41:55.133Z,19.1
2016-08-27T03:42:19.264Z,19
2016-08-27T03:42:43.385Z,19
2016-08-27T03:43:07.497Z,19
2016-08-27T03:43:31.635Z,19
2016-08-27T03:43:55.737Z,19
2016-08-27T03:44:19.838Z,19
2016-08-27T03:44:43.954Z,19
2016-08-27T03:45:08.073Z,19
2016-08-27T03:45:32.190Z,19
2016-08-27T03:45:56.297Z,18.9
2016-08-27T03:46:20.441Z,19.1
2016-08-27T03:46:44.580Z,18.9
2016-08-27T03:47:08.682Z,19
2016-08-27T03:47:32.765Z,18.9
2016-08-27T03:47:56.876Z,18.9
2016-08-27T03:48:20.993Z,18.9
2016-08-27T03:48:45.132Z,18.9
2016-08-27T03:49:09.232Z,18.9
2016-08-27T03:49:33.345Z,18.9
2016-08-27T03:49:57.458Z,19
2016-08-27T03:50:21.580Z,18.9
2016-08-27T03:50:45.686Z,19
2016-08-27T03:51:09.798Z,19
2016-08-27T03:51:33.934Z,18.9
2016-08-27T03:52:20.224Z,18.9
2016-08-27T03:52:44.332Z,18.9
2016-08-27T03:53:08.447Z,18.9
2016-08-27T03:53:32.590Z,18.9
2016-08-27T03:53:56.700Z,18.9
2016-08-27T03:54:20.809Z,18.9
2016-08-27T03:54:44.924Z,18.9
2016-08-27T03:55:09.043Z,18.9
2016-08-27T03:55:33.154Z,18.9
2016-08-27T03:55:57.257Z,18.9
2016-08-27T03:56:21.387Z,18.9
2016-08-27T03:56:45.516Z,18.9
2016-08-27T03:57:09.648Z,18.9
2016-08-27T03:57:33.790Z,18.9
2016-08-27T03:57:57.922Z,18.9
2016-08-27T03:58:22.047Z,18.9
2016-08-27T03:58:46.160Z,18.8
2016-08-27T03:59:10.261Z,18.8
2016-08-27T03:59:34.384Z,18.8
2016-08-27T03:59:58.513Z,18.9
2016-08-27T04:00:22.683Z,18.8
2016-08-27T04:00:46.796Z,18.8
2016-08-27T04:01:10.944Z,18.8
2016-08-27T04:01:35.062Z,18.8
2016-08-27T04:01:59.184Z,18.8
2016-08-27T04:02:23.306Z,18.8
2016-08-27T04:02:47.430Z,18.8
2016-08-27T04:03:11.556Z,18.8
2016-08-27T04:03:35.663Z,18.8
2016-08-27T04:03:59.786Z,18.8
2016-08-27T04:04:23.928Z,18.8
2016-08-27T04:04:48.043Z,18.8
2016-08-27T04:05:12.154Z,18.8
2016-08-27T04:05:36.268Z,18.9
2016-08-27T04:06:00.407Z,18.9
2016-08-27T04:06:24.523Z,18.8
2016-08-27T04:06:48.608Z,18.8
2016-08-27T04:07:12.744Z,18.9
2016-08-27T04:07:36.869Z,18.9
2016-08-27T04:08:00.989Z,18.9
2016-08-27T04:08:25.111Z,18.8
2016-08-27T04:08:49.223Z,18.8
2016-08-27T04:09:13.347Z,18.8
2016-08-27T04:09:37.463Z,18.8
2016-08-27T04:10:01.593Z,18.9
2016-08-27T04:10:25.716Z,18.9
2016-08-27T04:10:49.830Z,18.9
2016-08-27T04:11:14.178Z,18.8
2016-08-27T04:11:38.299Z,18.8
2016-08-27T04:12:02.412Z,18.9
2016-08-27T04:12:26.537Z,18.8
2016-08-27T04:12:50.639Z,18.9
2016-08-27T04:13:14.765Z,18.8
2016-08-27T04:13:38.903Z,18.9
2016-08-27T04:14:03.016Z,18.9
2016-08-27T04:14:27.158Z,18.8
2016-08-27T04:14:51.301Z,18.9
2016-08-27T04:15:15.421Z,18.8
2016-08-27T04:15:39.530Z,18.9
2016-08-27T04:16:03.661Z,18.9
2016-08-27T04:16:27.764Z,18.9
2016-08-27T04:16:51.894Z,18.9
2016-08-27T04:17:15.993Z,18.8
2016-08-27T04:17:40.115Z,18.8
2016-08-27T04:18:04.256Z,18.9
2016-08-27T04:18:28.374Z,18.9
2016-08-27T04:18:52.484Z,18.9
2016-08-27T04:19:16.635Z,18.8
2016-08-27T04:19:40.764Z,18.9
2016-08-27T04:20:04.892Z,18.8
2016-08-27T04:20:29.014Z,18.9
2016-08-27T04:20:53.128Z,18.9
2016-08-27T04:21:17.244Z,18.9
2016-08-27T04:21:41.348Z,18.9
2016-08-27T04:22:05.455Z,18.9
2016-08-27T04:22:29.566Z,18.9
2016-08-27T04:22:53.711Z,18.9
2016-08-27T04:23:17.824Z,18.8
2016-08-27T04:23:41.938Z,18.8
2016-08-27T04:24:06.091Z,18.9
2016-08-27T04:24:30.253Z,18.9
2016-08-27T04:24:54.343Z,18.9
2016-08-27T04:25:18.500Z,18.9
2016-08-27T04:25:42.644Z,18.8
2016-08-27T04:26:06.796Z,18.8
2016-08-27T04:26:30.926Z,18.9
2016-08-27T04:26:55.049Z,18.8
2016-08-27T04:27:19.187Z,18.8
2016-08-27T04:27:43.317Z,18.9
2016-08-27T04:28:07.428Z,18.9
2016-08-27T04:28:31.572Z,18.9
2016-08-27T04:28:55.701Z,18.8
2016-08-27T04:29:19.818Z,18.9
2016-08-27T04:29:43.947Z,18.9
2016-08-27T04:30:08.078Z,18.9
2016-08-27T04:30:32.201Z,18.9
2016-08-27T04:30:56.323Z,18.9
2016-08-27T04:31:20.483Z,18.9
2016-08-27T04:31:44.598Z,18.9
2016-08-27T04:32:08.719Z,18.9
